sensor_id;sensor_type;location;lat;lon;timestamp;P1;durP1;ratioP1;P2;durP2;ratioP2
16426;SDS011;8322;-33.900;151.170;2023-04-12T00:02:09;5.85;;;1.90;;
16426;SDS011;8322;-33.900;151.170;2023-04-12T00:04:39;5.00;;;2.17;;
16426;SDS011;8322;-33.900;151.170;2023-04-12T00:07:08;6.22;;;2.33;;
16426;SDS011;8322;-33.900;151.170;2023-04-12T00:09:38;6.50;;;2.35;;
16426;SDS011;8322;-33.900;151.170;2023-04-12T00:12:16;8.38;;;2.40;;
16426;SDS011;8322;-33.900;151.170;2023-04-12T00:14:46;6.60;;;1.80;;
16426;SDS011;8322;-33.900;151.170;2023-04-12T00:17:17;6.82;;;1.90;;
16426;SDS011;8322;-33.900;151.170;2023-04-12T00:19:47;11.27;;;4.82;;
16426;SDS011;8322;-33.900;151.170;2023-04-12T00:22:17;4.97;;;2.00;;
16426;SDS011;8322;-33.900;151.170;2023-04-12T00:24:46;4.60;;;1.98;;
16426;SDS011;8322;-33.900;151.170;2023-04-12T00:27:16;5.00;;;2.10;;
16426;SDS011;8322;-33.900;151.170;2023-04-12T00:29:45;6.35;;;2.05;;
16426;SDS011;8322;-33.900;151.170;2023-04-12T00:32:15;3.65;;;2.10;;
16426;SDS011;8322;-33.900;151.170;2023-04-12T00:34:46;7.07;;;1.98;;
16426;SDS011;8322;-33.900;151.170;2023-04-12T00:37:15;4.55;;;1.80;;
16426;SDS011;8322;-33.900;151.170;2023-04-12T00:39:45;5.53;;;1.90;;
16426;SDS011;8322;-33.900;151.170;2023-04-12T00:42:14;4.05;;;2.08;;
16426;SDS011;8322;-33.900;151.170;2023-04-12T00:44:44;5.13;;;1.60;;
16426;SDS011;8322;-33.900;151.170;2023-04-12T00:47:13;6.35;;;2.28;;
16426;SDS011;8322;-33.900;151.170;2023-04-12T00:49:43;3.65;;;1.90;;
16426;SDS011;8322;-33.900;151.170;2023-04-12T00:52:14;4.97;;;1.75;;
16426;SDS011;8322;-33.900;151.170;2023-04-12T00:54:44;9.45;;;2.83;;
16426;SDS011;8322;-33.900;151.170;2023-04-12T00:57:14;4.85;;;1.60;;
16426;SDS011;8322;-33.900;151.170;2023-04-12T00:59:43;6.63;;;1.80;;
16426;SDS011;8322;-33.900;151.170;2023-04-12T01:02:13;4.18;;;1.63;;
16426;SDS011;8322;-33.900;151.170;2023-04-12T01:04:43;6.07;;;1.80;;
16426;SDS011;8322;-33.900;151.170;2023-04-12T01:07:18;5.32;;;1.70;;
16426;SDS011;8322;-33.900;151.170;2023-04-12T01:09:52;6.72;;;1.75;;
16426;SDS011;8322;-33.900;151.170;2023-04-12T01:12:24;5.22;;;1.88;;
16426;SDS011;8322;-33.900;151.170;2023-04-12T01:15:01;4.38;;;1.92;;
16426;SDS011;8322;-33.900;151.170;2023-04-12T01:17:32;8.18;;;2.05;;
16426;SDS011;8322;-33.900;151.170;2023-04-12T01:20:04;7.50;;;2.17;;
16426;SDS011;8322;-33.900;151.170;2023-04-12T01:25:28;4.10;;;1.90;;
16426;SDS011;8322;-33.900;151.170;2023-04-12T01:28:06;2.63;;;1.63;;
16426;SDS011;8322;-33.900;151.170;2023-04-12T01:30:37;4.45;;;1.85;;
16426;SDS011;8322;-33.900;151.170;2023-04-12T01:33:08;5.10;;;1.88;;
16426;SDS011;8322;-33.900;151.170;2023-04-12T01:35:38;3.65;;;1.75;;
16426;SDS011;8322;-33.900;151.170;2023-04-12T01:38:08;5.35;;;1.88;;
16426;SDS011;8322;-33.900;151.170;2023-04-12T01:40:38;3.88;;;1.95;;
16426;SDS011;8322;-33.900;151.170;2023-04-12T01:43:10;6.18;;;2.50;;
16426;SDS011;8322;-33.900;151.170;2023-04-12T01:45:39;4.35;;;1.70;;
16426;SDS011;8322;-33.900;151.170;2023-04-12T01:48:09;3.33;;;1.60;;
16426;SDS011;8322;-33.900;151.170;2023-04-12T01:50:40;5.95;;;1.88;;
16426;SDS011;8322;-33.900;151.170;2023-04-12T01:53:12;5.28;;;1.33;;
16426;SDS011;8322;-33.900;151.170;2023-04-12T01:55:44;3.83;;;1.45;;
16426;SDS011;8322;-33.900;151.170;2023-04-12T01:58:18;3.03;;;1.20;;
16426;SDS011;8322;-33.900;151.170;2023-04-12T02:00:49;2.75;;;1.42;;
16426;SDS011;8322;-33.900;151.170;2023-04-12T02:03:19;3.83;;;1.50;;
16426;SDS011;8322;-33.900;151.170;2023-04-12T02:05:48;6.80;;;1.75;;
16426;SDS011;8322;-33.900;151.170;2023-04-12T02:08:18;5.10;;;1.55;;
16426;SDS011;8322;-33.900;151.170;2023-04-12T02:10:47;5.15;;;1.40;;
16426;SDS011;8322;-33.900;151.170;2023-04-12T02:13:19;3.38;;;1.67;;
16426;SDS011;8322;-33.900;151.170;2023-04-12T02:15:48;4.22;;;1.60;;
16426;SDS011;8322;-33.900;151.170;2023-04-12T02:18:19;2.53;;;1.15;;
16426;SDS011;8322;-33.900;151.170;2023-04-12T02:20:49;4.18;;;2.05;;
16426;SDS011;8322;-33.900;151.170;2023-04-12T02:23:18;3.20;;;1.77;;
16426;SDS011;8322;-33.900;151.170;2023-04-12T02:25:48;4.03;;;1.75;;
16426;SDS011;8322;-33.900;151.170;2023-04-12T02:28:19;6.60;;;1.75;;
16426;SDS011;8322;-33.900;151.170;2023-04-12T02:30:49;4.97;;;1.85;;
16426;SDS011;8322;-33.900;151.170;2023-04-12T02:33:19;4.72;;;1.70;;
16426;SDS011;8322;-33.900;151.170;2023-04-12T02:35:50;5.65;;;1.50;;
16426;SDS011;8322;-33.900;151.170;2023-04-12T02:38:19;7.97;;;2.50;;
16426;SDS011;8322;-33.900;151.170;2023-04-12T02:40:49;6.53;;;1.60;;
16426;SDS011;8322;-33.900;151.170;2023-04-12T02:43:20;5.18;;;1.60;;
16426;SDS011;8322;-33.900;151.170;2023-04-12T02:45:50;5.10;;;1.45;;
16426;SDS011;8322;-33.900;151.170;2023-04-12T02:48:19;2.78;;;1.33;;
16426;SDS011;8322;-33.900;151.170;2023-04-12T02:50:48;4.80;;;1.75;;
16426;SDS011;8322;-33.900;151.170;2023-04-12T02:53:18;3.40;;;1.50;;
16426;SDS011;8322;-33.900;151.170;2023-04-12T02:55:48;3.50;;;1.48;;
16426;SDS011;8322;-33.900;151.170;2023-04-12T02:58:17;5.45;;;1.52;;
16426;SDS011;8322;-33.900;151.170;2023-04-12T03:00:48;4.07;;;1.40;;
16426;SDS011;8322;-33.900;151.170;2023-04-12T03:03:18;2.67;;;1.40;;
16426;SDS011;8322;-33.900;151.170;2023-04-12T03:05:47;2.92;;;1.30;;
16426;SDS011;8322;-33.900;151.170;2023-04-12T03:08:17;4.82;;;1.73;;
16426;SDS011;8322;-33.900;151.170;2023-04-12T03:10:47;2.55;;;1.77;;
16426;SDS011;8322;-33.900;151.170;2023-04-12T03:13:16;3.88;;;1.40;;
16426;SDS011;8322;-33.900;151.170;2023-04-12T03:15:46;4.30;;;1.40;;
16426;SDS011;8322;-33.900;151.170;2023-04-12T03:18:18;3.63;;;1.13;;
16426;SDS011;8322;-33.900;151.170;2023-04-12T03:20:48;2.67;;;1.30;;
16426;SDS011;8322;-33.900;151.170;2023-04-12T03:23:19;2.10;;;1.02;;
16426;SDS011;8322;-33.900;151.170;2023-04-12T03:25:48;1.60;;;1.10;;
16426;SDS011;8322;-33.900;151.170;2023-04-12T03:28:18;4.03;;;1.25;;
16426;SDS011;8322;-33.900;151.170;2023-04-12T03:30:48;1.40;;;1.02;;
16426;SDS011;8322;-33.900;151.170;2023-04-12T03:33:21;2.63;;;1.20;;
16426;SDS011;8322;-33.900;151.170;2023-04-12T03:35:50;2.55;;;1.45;;
16426;SDS011;8322;-33.900;151.170;2023-04-12T03:38:20;4.30;;;1.25;;
16426;SDS011;8322;-33.900;151.170;2023-04-12T03:40:51;2.53;;;1.25;;
16426;SDS011;8322;-33.900;151.170;2023-04-12T03:43:20;1.83;;;1.10;;
16426;SDS011;8322;-33.900;151.170;2023-04-12T03:45:50;1.77;;;1.10;;
16426;SDS011;8322;-33.900;151.170;2023-04-12T03:48:21;2.55;;;1.10;;
16426;SDS011;8322;-33.900;151.170;2023-04-12T03:50:50;2.90;;;1.20;;
16426;SDS011;8322;-33.900;151.170;2023-04-12T03:53:20;4.28;;;1.48;;
16426;SDS011;8322;-33.900;151.170;2023-04-12T03:55:50;1.70;;;1.10;;
16426;SDS011;8322;-33.900;151.170;2023-04-12T03:58:19;2.28;;;1.10;;
16426;SDS011;8322;-33.900;151.170;2023-04-12T04:00:49;2.05;;;1.00;;
16426;SDS011;8322;-33.900;151.170;2023-04-12T04:03:20;3.90;;;1.27;;
16426;SDS011;8322;-33.900;151.170;2023-04-12T04:05:51;1.65;;;0.93;;
16426;SDS011;8322;-33.900;151.170;2023-04-12T04:08:21;2.22;;;1.25;;
16426;SDS011;8322;-33.900;151.170;2023-04-12T04:10:50;3.13;;;1.70;;
16426;SDS011;8322;-33.900;151.170;2023-04-12T04:13:20;3.33;;;2.50;;
16426;SDS011;8322;-33.900;151.170;2023-04-12T04:15:49;5.85;;;2.10;;
16426;SDS011;8322;-33.900;151.170;2023-04-12T04:18:21;4.38;;;1.60;;
16426;SDS011;8322;-33.900;151.170;2023-04-12T04:20:50;3.92;;;1.70;;
16426;SDS011;8322;-33.900;151.170;2023-04-12T04:23:20;3.15;;;1.20;;
16426;SDS011;8322;-33.900;151.170;2023-04-12T04:25:50;3.75;;;1.10;;
16426;SDS011;8322;-33.900;151.170;2023-04-12T04:28:20;2.83;;;1.25;;
16426;SDS011;8322;-33.900;151.170;2023-04-12T04:30:50;3.00;;;1.63;;
16426;SDS011;8322;-33.900;151.170;2023-04-12T04:33:22;2.45;;;1.50;;
16426;SDS011;8322;-33.900;151.170;2023-04-12T04:35:52;2.42;;;1.20;;
16426;SDS011;8322;-33.900;151.170;2023-04-12T04:38:23;4.22;;;1.35;;
16426;SDS011;8322;-33.900;151.170;2023-04-12T04:40:53;2.72;;;1.50;;
16426;SDS011;8322;-33.900;151.170;2023-04-12T04:43:23;3.60;;;1.50;;
16426;SDS011;8322;-33.900;151.170;2023-04-12T04:45:55;4.18;;;1.52;;
16426;SDS011;8322;-33.900;151.170;2023-04-12T04:48:26;3.33;;;1.50;;
16426;SDS011;8322;-33.900;151.170;2023-04-12T04:50:56;3.78;;;1.38;;
16426;SDS011;8322;-33.900;151.170;2023-04-12T04:53:28;7.25;;;1.60;;
16426;SDS011;8322;-33.900;151.170;2023-04-12T04:55:58;2.80;;;1.13;;
16426;SDS011;8322;-33.900;151.170;2023-04-12T04:58:27;2.58;;;1.20;;
16426;SDS011;8322;-33.900;151.170;2023-04-12T05:00:57;2.38;;;1.20;;
16426;SDS011;8322;-33.900;151.170;2023-04-12T05:03:28;3.70;;;1.33;;
16426;SDS011;8322;-33.900;151.170;2023-04-12T05:05:59;5.78;;;1.70;;
16426;SDS011;8322;-33.900;151.170;2023-04-12T05:08:29;3.22;;;1.45;;
16426;SDS011;8322;-33.900;151.170;2023-04-12T05:10:58;2.20;;;1.20;;
16426;SDS011;8322;-33.900;151.170;2023-04-12T05:13:27;2.20;;;1.48;;
16426;SDS011;8322;-33.900;151.170;2023-04-12T05:15:57;2.55;;;1.52;;
16426;SDS011;8322;-33.900;151.170;2023-04-12T05:18:28;3.63;;;1.88;;
16426;SDS011;8322;-33.900;151.170;2023-04-12T05:21:00;5.72;;;2.25;;
16426;SDS011;8322;-33.900;151.170;2023-04-12T05:23:33;2.15;;;1.60;;
16426;SDS011;8322;-33.900;151.170;2023-04-12T05:26:03;1.80;;;1.20;;
16426;SDS011;8322;-33.900;151.170;2023-04-12T05:28:33;3.92;;;1.20;;
16426;SDS011;8322;-33.900;151.170;2023-04-12T05:31:02;1.83;;;1.55;;
16426;SDS011;8322;-33.900;151.170;2023-04-12T05:33:35;2.60;;;1.20;;
16426;SDS011;8322;-33.900;151.170;2023-04-12T05:36:04;2.75;;;1.40;;
16426;SDS011;8322;-33.900;151.170;2023-04-12T05:38:34;1.92;;;1.30;;
16426;SDS011;8322;-33.900;151.170;2023-04-12T05:41:03;1.88;;;1.73;;
16426;SDS011;8322;-33.900;151.170;2023-04-12T05:43:33;1.80;;;1.63;;
16426;SDS011;8322;-33.900;151.170;2023-04-12T05:46:04;3.28;;;1.60;;
16426;SDS011;8322;-33.900;151.170;2023-04-12T05:48:36;2.88;;;1.45;;
16426;SDS011;8322;-33.900;151.170;2023-04-12T05:51:05;1.90;;;1.00;;
16426;SDS011;8322;-33.900;151.170;2023-04-12T05:53:35;1.85;;;1.38;;
16426;SDS011;8322;-33.900;151.170;2023-04-12T05:56:04;1.20;;;1.10;;
16426;SDS011;8322;-33.900;151.170;2023-04-12T05:58:34;1.23;;;1.10;;
16426;SDS011;8322;-33.900;151.170;2023-04-12T06:01:04;2.05;;;1.10;;
16426;SDS011;8322;-33.900;151.170;2023-04-12T06:03:33;1.67;;;1.08;;
16426;SDS011;8322;-33.900;151.170;2023-04-12T06:06:08;2.70;;;1.58;;
16426;SDS011;8322;-33.900;151.170;2023-04-12T06:08:39;1.65;;;1.20;;
16426;SDS011;8322;-33.900;151.170;2023-04-12T06:11:09;2.20;;;1.55;;
16426;SDS011;8322;-33.900;151.170;2023-04-12T06:13:38;4.70;;;2.60;;
16426;SDS011;8322;-33.900;151.170;2023-04-12T06:16:08;4.35;;;2.30;;
16426;SDS011;8322;-33.900;151.170;2023-04-12T06:18:38;2.75;;;1.15;;
16426;SDS011;8322;-33.900;151.170;2023-04-12T06:21:10;3.40;;;1.90;;
16426;SDS011;8322;-33.900;151.170;2023-04-12T06:23:39;6.07;;;3.92;;
16426;SDS011;8322;-33.900;151.170;2023-04-12T06:26:09;6.68;;;3.90;;
16426;SDS011;8322;-33.900;151.170;2023-04-12T06:28:38;5.80;;;3.55;;
16426;SDS011;8322;-33.900;151.170;2023-04-12T06:31:07;7.47;;;4.72;;
16426;SDS011;8322;-33.900;151.170;2023-04-12T06:33:37;7.57;;;3.78;;
16426;SDS011;8322;-33.900;151.170;2023-04-12T06:36:07;6.43;;;4.28;;
16426;SDS011;8322;-33.900;151.170;2023-04-12T06:38:39;4.63;;;2.33;;
16426;SDS011;8322;-33.900;151.170;2023-04-12T06:41:09;4.68;;;2.63;;
16426;SDS011;8322;-33.900;151.170;2023-04-12T06:43:38;1.63;;;1.27;;
16426;SDS011;8322;-33.900;151.170;2023-04-12T06:46:08;5.40;;;3.20;;
16426;SDS011;8322;-33.900;151.170;2023-04-12T06:48:37;7.20;;;5.10;;
16426;SDS011;8322;-33.900;151.170;2023-04-12T06:51:07;4.80;;;2.88;;
16426;SDS011;8322;-33.900;151.170;2023-04-12T06:53:36;3.47;;;1.63;;
16426;SDS011;8322;-33.900;151.170;2023-04-12T06:56:08;12.77;;;7.20;;
16426;SDS011;8322;-33.900;151.170;2023-04-12T06:58:37;19.70;;;14.23;;
16426;SDS011;8322;-33.900;151.170;2023-04-12T07:01:07;24.88;;;17.17;;
16426;SDS011;8322;-33.900;151.170;2023-04-12T07:03:38;12.30;;;7.65;;
16426;SDS011;8322;-33.900;151.170;2023-04-12T07:06:07;27.27;;;19.10;;
16426;SDS011;8322;-33.900;151.170;2023-04-12T07:08:37;8.48;;;5.07;;
16426;SDS011;8322;-33.900;151.170;2023-04-12T07:11:08;4.82;;;2.83;;
16426;SDS011;8322;-33.900;151.170;2023-04-12T07:13:37;9.45;;;6.72;;
16426;SDS011;8322;-33.900;151.170;2023-04-12T07:16:07;17.70;;;11.48;;
16426;SDS011;8322;-33.900;151.170;2023-04-12T07:18:36;5.57;;;3.47;;
16426;SDS011;8322;-33.900;151.170;2023-04-12T07:21:06;3.03;;;2.00;;
16426;SDS011;8322;-33.900;151.170;2023-04-12T07:23:39;17.48;;;11.20;;
16426;SDS011;8322;-33.900;151.170;2023-04-12T07:26:10;25.52;;;16.98;;
16426;SDS011;8322;-33.900;151.170;2023-04-12T07:28:39;14.52;;;9.25;;
16426;SDS011;8322;-33.900;151.170;2023-04-12T07:31:09;23.63;;;17.30;;
16426;SDS011;8322;-33.900;151.170;2023-04-12T07:33:38;39.15;;;25.95;;
16426;SDS011;8322;-33.900;151.170;2023-04-12T07:36:08;8.40;;;5.60;;
16426;SDS011;8322;-33.900;151.170;2023-04-12T07:38:37;17.23;;;12.13;;
16426;SDS011;8322;-33.900;151.170;2023-04-12T07:41:07;23.60;;;16.83;;
16426;SDS011;8322;-33.900;151.170;2023-04-12T07:43:38;35.33;;;23.77;;
16426;SDS011;8322;-33.900;151.170;2023-04-12T07:46:07;10.43;;;5.88;;
16426;SDS011;8322;-33.900;151.170;2023-04-12T07:48:37;5.82;;;2.75;;
16426;SDS011;8322;-33.900;151.170;2023-04-12T07:51:06;5.00;;;2.45;;
16426;SDS011;8322;-33.900;151.170;2023-04-12T07:53:36;3.97;;;2.20;;
16426;SDS011;8322;-33.900;151.170;2023-04-12T07:56:07;5.55;;;1.80;;
16426;SDS011;8322;-33.900;151.170;2023-04-12T07:58:38;4.55;;;1.60;;
16426;SDS011;8322;-33.900;151.170;2023-04-12T08:01:07;3.15;;;1.50;;
16426;SDS011;8322;-33.900;151.170;2023-04-12T08:03:37;2.50;;;1.60;;
16426;SDS011;8322;-33.900;151.170;2023-04-12T08:06:07;3.78;;;2.03;;
16426;SDS011;8322;-33.900;151.170;2023-04-12T08:08:36;4.00;;;2.40;;
16426;SDS011;8322;-33.900;151.170;2023-04-12T08:11:07;4.43;;;2.58;;
16426;SDS011;8322;-33.900;151.170;2023-04-12T08:13:38;6.82;;;2.92;;
16426;SDS011;8322;-33.900;151.170;2023-04-12T08:16:07;10.10;;;3.55;;
16426;SDS011;8322;-33.900;151.170;2023-04-12T08:18:37;10.70;;;6.47;;
16426;SDS011;8322;-33.900;151.170;2023-04-12T08:21:07;10.93;;;4.40;;
16426;SDS011;8322;-33.900;151.170;2023-04-12T08:23:36;11.65;;;5.55;;
16426;SDS011;8322;-33.900;151.170;2023-04-12T08:26:06;10.15;;;5.82;;
16426;SDS011;8322;-33.900;151.170;2023-04-12T08:28:35;8.43;;;4.10;;
16426;SDS011;8322;-33.900;151.170;2023-04-12T08:31:06;12.55;;;7.40;;
16426;SDS011;8322;-33.900;151.170;2023-04-12T08:33:36;8.18;;;4.40;;
16426;SDS011;8322;-33.900;151.170;2023-04-12T08:36:06;4.72;;;3.33;;
16426;SDS011;8322;-33.900;151.170;2023-04-12T08:38:35;5.72;;;3.13;;
16426;SDS011;8322;-33.900;151.170;2023-04-12T08:41:05;4.13;;;2.30;;
16426;SDS011;8322;-33.900;151.170;2023-04-12T08:43:35;4.05;;;2.80;;
16426;SDS011;8322;-33.900;151.170;2023-04-12T08:46:06;4.75;;;2.83;;
16426;SDS011;8322;-33.900;151.170;2023-04-12T08:48:36;9.70;;;4.15;;
16426;SDS011;8322;-33.900;151.170;2023-04-12T08:51:06;9.60;;;5.15;;
16426;SDS011;8322;-33.900;151.170;2023-04-12T08:53:36;8.70;;;5.22;;
16426;SDS011;8322;-33.900;151.170;2023-04-12T08:56:07;12.48;;;7.15;;
16426;SDS011;8322;-33.900;151.170;2023-04-12T08:58:38;22.48;;;14.02;;
16426;SDS011;8322;-33.900;151.170;2023-04-12T09:01:11;15.88;;;8.65;;
16426;SDS011;8322;-33.900;151.170;2023-04-12T09:03:41;13.48;;;6.80;;
16426;SDS011;8322;-33.900;151.170;2023-04-12T09:06:11;11.00;;;5.90;;
16426;SDS011;8322;-33.900;151.170;2023-04-12T09:08:51;5.00;;;3.42;;
16426;SDS011;8322;-33.900;151.170;2023-04-12T09:11:20;4.15;;;2.53;;
16426;SDS011;8322;-33.900;151.170;2023-04-12T09:13:50;5.63;;;3.10;;
16426;SDS011;8322;-33.900;151.170;2023-04-12T09:19:05;42.33;;;16.08;;
16426;SDS011;8322;-33.900;151.170;2023-04-12T09:21:35;33.15;;;13.55;;
16426;SDS011;8322;-33.900;151.170;2023-04-12T09:24:04;15.35;;;6.70;;
16426;SDS011;8322;-33.900;151.170;2023-04-12T09:26:38;13.25;;;5.40;;
16426;SDS011;8322;-33.900;151.170;2023-04-12T09:29:18;13.48;;;7.05;;
16426;SDS011;8322;-33.900;151.170;2023-04-12T09:31:54;13.25;;;7.05;;
16426;SDS011;8322;-33.900;151.170;2023-04-12T09:34:25;8.45;;;5.03;;
16426;SDS011;8322;-33.900;151.170;2023-04-12T09:36:55;9.77;;;4.88;;
16426;SDS011;8322;-33.900;151.170;2023-04-12T09:39:31;9.10;;;4.53;;
16426;SDS011;8322;-33.900;151.170;2023-04-12T09:42:05;8.77;;;4.00;;
16426;SDS011;8322;-33.900;151.170;2023-04-12T09:44:39;12.68;;;5.03;;
16426;SDS011;8322;-33.900;151.170;2023-04-12T09:47:09;9.35;;;5.00;;
16426;SDS011;8322;-33.900;151.170;2023-04-12T09:49:40;7.75;;;4.50;;
16426;SDS011;8322;-33.900;151.170;2023-04-12T09:52:11;9.25;;;4.25;;
16426;SDS011;8322;-33.900;151.170;2023-04-12T09:54:41;8.90;;;4.20;;
16426;SDS011;8322;-33.900;151.170;2023-04-12T09:57:11;7.45;;;5.28;;
16426;SDS011;8322;-33.900;151.170;2023-04-12T09:59:41;12.02;;;6.20;;
16426;SDS011;8322;-33.900;151.170;2023-04-12T10:02:13;8.55;;;5.18;;
16426;SDS011;8322;-33.900;151.170;2023-04-12T10:04:46;7.53;;;4.38;;
16426;SDS011;8322;-33.900;151.170;2023-04-12T10:07:15;5.75;;;3.60;;
16426;SDS011;8322;-33.900;151.170;2023-04-12T10:09:45;6.60;;;3.75;;
16426;SDS011;8322;-33.900;151.170;2023-04-12T10:12:15;7.90;;;4.00;;
16426;SDS011;8322;-33.900;151.170;2023-04-12T10:14:44;7.95;;;3.80;;
16426;SDS011;8322;-33.900;151.170;2023-04-12T10:17:14;6.45;;;3.42;;
16426;SDS011;8322;-33.900;151.170;2023-04-12T10:19:49;8.35;;;4.22;;
16426;SDS011;8322;-33.900;151.170;2023-04-12T10:22:18;7.97;;;3.33;;
16426;SDS011;8322;-33.900;151.170;2023-04-12T10:24:48;7.10;;;3.50;;
16426;SDS011;8322;-33.900;151.170;2023-04-12T10:27:23;4.07;;;2.70;;
16426;SDS011;8322;-33.900;151.170;2023-04-12T10:29:53;4.45;;;2.70;;
16426;SDS011;8322;-33.900;151.170;2023-04-12T10:32:23;6.82;;;3.00;;
16426;SDS011;8322;-33.900;151.170;2023-04-12T10:34:55;4.63;;;3.10;;
16426;SDS011;8322;-33.900;151.170;2023-04-12T10:40:12;5.60;;;3.10;;
16426;SDS011;8322;-33.900;151.170;2023-04-12T10:42:45;6.00;;;3.20;;
16426;SDS011;8322;-33.900;151.170;2023-04-12T10:45:35;7.35;;;3.60;;
16426;SDS011;8322;-33.900;151.170;2023-04-12T10:48:05;8.02;;;3.40;;
16426;SDS011;8322;-33.900;151.170;2023-04-12T10:50:36;5.93;;;3.25;;
16426;SDS011;8322;-33.900;151.170;2023-04-12T10:53:21;4.93;;;2.80;;
16426;SDS011;8322;-33.900;151.170;2023-04-12T10:55:54;4.53;;;2.85;;
16426;SDS011;8322;-33.900;151.170;2023-04-12T11:01:10;7.13;;;3.65;;
16426;SDS011;8322;-33.900;151.170;2023-04-12T11:06:41;5.18;;;3.00;;
16426;SDS011;8322;-33.900;151.170;2023-04-12T11:09:17;6.05;;;3.38;;
16426;SDS011;8322;-33.900;151.170;2023-04-12T11:11:47;6.78;;;3.85;;
16426;SDS011;8322;-33.900;151.170;2023-04-12T11:14:17;7.80;;;3.78;;
16426;SDS011;8322;-33.900;151.170;2023-04-12T11:19:35;9.27;;;5.07;;
16426;SDS011;8322;-33.900;151.170;2023-04-12T11:22:07;10.88;;;6.38;;
16426;SDS011;8322;-33.900;151.170;2023-04-12T11:24:37;12.15;;;5.32;;
16426;SDS011;8322;-33.900;151.170;2023-04-12T11:27:07;8.98;;;4.63;;
16426;SDS011;8322;-33.900;151.170;2023-04-12T11:29:36;10.25;;;4.15;;
16426;SDS011;8322;-33.900;151.170;2023-04-12T11:32:08;9.05;;;5.25;;
16426;SDS011;8322;-33.900;151.170;2023-04-12T11:34:38;7.75;;;4.25;;
16426;SDS011;8322;-33.900;151.170;2023-04-12T11:37:09;6.18;;;3.67;;
16426;SDS011;8322;-33.900;151.170;2023-04-12T11:39:39;7.50;;;3.95;;
16426;SDS011;8322;-33.900;151.170;2023-04-12T11:42:11;7.20;;;3.70;;
16426;SDS011;8322;-33.900;151.170;2023-04-12T11:44:42;7.80;;;4.28;;
16426;SDS011;8322;-33.900;151.170;2023-04-12T11:47:13;7.40;;;3.78;;
16426;SDS011;8322;-33.900;151.170;2023-04-12T11:49:43;7.15;;;4.18;;
16426;SDS011;8322;-33.900;151.170;2023-04-12T11:52:15;6.00;;;4.00;;
16426;SDS011;8322;-33.900;151.170;2023-04-12T11:54:45;6.30;;;3.20;;
16426;SDS011;8322;-33.900;151.170;2023-04-12T11:57:15;5.55;;;3.17;;
16426;SDS011;8322;-33.900;151.170;2023-04-12T11:59:45;8.27;;;3.85;;
16426;SDS011;8322;-33.900;151.170;2023-04-12T12:02:15;10.13;;;5.82;;
16426;SDS011;8322;-33.900;151.170;2023-04-12T12:04:45;8.05;;;4.95;;
16426;SDS011;8322;-33.900;151.170;2023-04-12T12:07:17;5.50;;;3.97;;
16426;SDS011;8322;-33.900;151.170;2023-04-12T12:09:47;6.78;;;3.38;;
16426;SDS011;8322;-33.900;151.170;2023-04-12T12:12:17;7.07;;;2.95;;
16426;SDS011;8322;-33.900;151.170;2023-04-12T12:14:46;6.18;;;2.95;;
16426;SDS011;8322;-33.900;151.170;2023-04-12T12:17:16;5.93;;;2.70;;
16426;SDS011;8322;-33.900;151.170;2023-04-12T12:19:45;6.35;;;2.85;;
16426;SDS011;8322;-33.900;151.170;2023-04-12T12:22:17;5.35;;;2.90;;
16426;SDS011;8322;-33.900;151.170;2023-04-12T12:24:48;6.50;;;3.55;;
16426;SDS011;8322;-33.900;151.170;2023-04-12T12:27:18;6.03;;;3.50;;
16426;SDS011;8322;-33.900;151.170;2023-04-12T12:29:48;6.97;;;3.42;;
16426;SDS011;8322;-33.900;151.170;2023-04-12T12:32:18;6.95;;;3.58;;
16426;SDS011;8322;-33.900;151.170;2023-04-12T12:34:52;7.22;;;3.67;;
16426;SDS011;8322;-33.900;151.170;2023-04-12T12:37:26;5.68;;;3.50;;
16426;SDS011;8322;-33.900;151.170;2023-04-12T12:39:59;7.90;;;3.70;;
16426;SDS011;8322;-33.900;151.170;2023-04-12T12:42:32;5.85;;;3.33;;
16426;SDS011;8322;-33.900;151.170;2023-04-12T12:45:02;5.70;;;3.28;;
16426;SDS011;8322;-33.900;151.170;2023-04-12T12:47:32;6.25;;;3.55;;
16426;SDS011;8322;-33.900;151.170;2023-04-12T12:50:02;7.43;;;3.75;;
16426;SDS011;8322;-33.900;151.170;2023-04-12T12:52:33;6.07;;;3.53;;
16426;SDS011;8322;-33.900;151.170;2023-04-12T12:55:03;5.95;;;3.60;;
16426;SDS011;8322;-33.900;151.170;2023-04-12T12:57:32;7.65;;;3.45;;
16426;SDS011;8322;-33.900;151.170;2023-04-12T13:00:02;6.38;;;3.10;;
16426;SDS011;8322;-33.900;151.170;2023-04-12T13:02:31;6.03;;;3.25;;
16426;SDS011;8322;-33.900;151.170;2023-04-12T13:05:01;6.60;;;3.55;;
16426;SDS011;8322;-33.900;151.170;2023-04-12T13:07:30;9.77;;;3.97;;
16426;SDS011;8322;-33.900;151.170;2023-04-12T13:10:02;6.10;;;3.33;;
16426;SDS011;8322;-33.900;151.170;2023-04-12T13:12:31;6.50;;;3.20;;
16426;SDS011;8322;-33.900;151.170;2023-04-12T13:15:01;5.00;;;2.80;;
16426;SDS011;8322;-33.900;151.170;2023-04-12T13:17:31;4.65;;;2.90;;
16426;SDS011;8322;-33.900;151.170;2023-04-12T13:20:00;3.67;;;2.80;;
16426;SDS011;8322;-33.900;151.170;2023-04-12T13:22:30;4.80;;;2.63;;
16426;SDS011;8322;-33.900;151.170;2023-04-12T13:25:01;5.35;;;2.90;;
16426;SDS011;8322;-33.900;151.170;2023-04-12T13:27:31;5.88;;;2.65;;
16426;SDS011;8322;-33.900;151.170;2023-04-12T13:30:00;18.42;;;12.23;;
16426;SDS011;8322;-33.900;151.170;2023-04-12T13:32:30;13.48;;;8.77;;
16426;SDS011;8322;-33.900;151.170;2023-04-12T13:34:59;4.95;;;3.20;;
16426;SDS011;8322;-33.900;151.170;2023-04-12T13:37:29;5.20;;;2.70;;
16426;SDS011;8322;-33.900;151.170;2023-04-12T13:39:58;4.18;;;2.20;;
16426;SDS011;8322;-33.900;151.170;2023-04-12T13:42:29;4.80;;;2.70;;
16426;SDS011;8322;-33.900;151.170;2023-04-12T13:44:59;4.93;;;2.42;;
16426;SDS011;8322;-33.900;151.170;2023-04-12T13:47:29;2.97;;;2.20;;
16426;SDS011;8322;-33.900;151.170;2023-04-12T13:49:59;5.03;;;2.78;;
16426;SDS011;8322;-33.900;151.170;2023-04-12T13:52:28;4.82;;;2.63;;
16426;SDS011;8322;-33.900;151.170;2023-04-12T13:54:57;4.53;;;2.30;;
16426;SDS011;8322;-33.900;151.170;2023-04-12T13:57:27;3.50;;;2.13;;
16426;SDS011;8322;-33.900;151.170;2023-04-12T13:59:58;4.30;;;2.22;;
16426;SDS011;8322;-33.900;151.170;2023-04-12T14:02:28;3.28;;;1.92;;
16426;SDS011;8322;-33.900;151.170;2023-04-12T14:04:57;3.30;;;1.77;;
16426;SDS011;8322;-33.900;151.170;2023-04-12T14:07:26;6.18;;;1.90;;
16426;SDS011;8322;-33.900;151.170;2023-04-12T14:09:56;3.00;;;2.03;;
16426;SDS011;8322;-33.900;151.170;2023-04-12T14:12:25;3.35;;;2.20;;
16426;SDS011;8322;-33.900;151.170;2023-04-12T14:14:55;2.97;;;1.88;;
16426;SDS011;8322;-33.900;151.170;2023-04-12T14:17:26;2.25;;;1.65;;
16426;SDS011;8322;-33.900;151.170;2023-04-12T14:19:57;2.80;;;1.92;;
16426;SDS011;8322;-33.900;151.170;2023-04-12T14:22:26;3.60;;;1.83;;
16426;SDS011;8322;-33.900;151.170;2023-04-12T14:24:56;2.50;;;1.85;;
16426;SDS011;8322;-33.900;151.170;2023-04-12T14:27:25;2.75;;;1.83;;
16426;SDS011;8322;-33.900;151.170;2023-04-12T14:29:55;1.95;;;1.60;;
16426;SDS011;8322;-33.900;151.170;2023-04-12T14:32:26;3.17;;;1.70;;
16426;SDS011;8322;-33.900;151.170;2023-04-12T14:34:56;3.17;;;1.70;;
16426;SDS011;8322;-33.900;151.170;2023-04-12T14:37:25;3.15;;;1.80;;
16426;SDS011;8322;-33.900;151.170;2023-04-12T14:39:55;4.60;;;1.50;;
16426;SDS011;8322;-33.900;151.170;2023-04-12T14:42:24;3.90;;;1.80;;
16426;SDS011;8322;-33.900;151.170;2023-04-12T14:44:59;2.78;;;1.70;;
16426;SDS011;8322;-33.900;151.170;2023-04-12T14:47:32;3.55;;;1.58;;
16426;SDS011;8322;-33.900;151.170;2023-04-12T14:50:01;3.38;;;1.70;;
16426;SDS011;8322;-33.900;151.170;2023-04-12T14:52:31;4.43;;;1.55;;
16426;SDS011;8322;-33.900;151.170;2023-04-12T14:55:00;3.42;;;1.60;;